createdAt,value
2017-08-27T00:00:17.004Z,43.13
2017-08-27T00:02:43.303Z,34.97
2017-08-27T00:05:09.660Z,35.30
2017-08-27T00:07:35.951Z,31.80
2017-08-27T00:10:02.231Z,36.67
2017-08-27T00:12:28.656Z,42.87
2017-08-27T00:14:54.984Z,38.20
2017-08-27T00:17:21.981Z,52.87
2017-08-27T00:19:48.291Z,52.70
2017-08-27T00:22:14.792Z,42.17
2017-08-27T00:24:41.111Z,48.10
2017-08-27T00:27:07.456Z,45.53
2017-08-27T00:29:33.724Z,47.60
2017-08-27T00:32:00.063Z,47.40
2017-08-27T00:34:26.380Z,39.97
2017-08-27T00:36:52.863Z,44.93
2017-08-27T00:39:19.215Z,56.47
2017-08-27T00:41:45.566Z,45.80
2017-08-27T00:44:11.862Z,41.30
2017-08-27T00:46:38.192Z,45.33
2017-08-27T00:49:04.505Z,43.57
2017-08-27T00:51:30.813Z,45.80
2017-08-27T00:53:57.199Z,46.63
2017-08-27T00:56:23.511Z,49.07
2017-08-27T00:58:49.872Z,48.70
2017-08-27T01:01:16.131Z,48.70
2017-08-27T01:03:42.429Z,46.90
2017-08-27T01:06:08.697Z,45.20
2017-08-27T01:08:35.004Z,41.27
2017-08-27T01:11:01.312Z,44.80
2017-08-27T01:13:27.712Z,47.23
2017-08-27T01:15:54.011Z,46.70
2017-08-27T01:18:20.307Z,50.67
2017-08-27T01:20:46.631Z,45.73
2017-08-27T01:23:13.736Z,49.83
2017-08-27T01:25:39.997Z,40.47
2017-08-27T01:28:06.340Z,43.63
2017-08-27T01:30:32.635Z,52.30
2017-08-27T01:32:59.096Z,48.93
2017-08-27T01:35:25.384Z,48.50
2017-08-27T01:37:51.720Z,49.97
2017-08-27T01:40:18.012Z,49.70
2017-08-27T01:42:44.324Z,52.00
2017-08-27T01:45:10.655Z,48.30
2017-08-27T01:47:37.140Z,55.77
2017-08-27T01:50:03.415Z,48.87
2017-08-27T01:52:29.699Z,49.13
2017-08-27T01:54:55.999Z,55.13
2017-08-27T01:57:22.343Z,67.27
2017-08-27T01:59:48.864Z,48.00
2017-08-27T02:02:15.230Z,54.67
2017-08-27T02:04:41.616Z,53.93
2017-08-27T02:07:07.959Z,53.87
2017-08-27T02:09:34.240Z,52.27
2017-08-27T02:12:00.539Z,50.23
2017-08-27T02:14:26.883Z,48.77
2017-08-27T02:16:53.180Z,57.07
2017-08-27T02:19:19.491Z,52.50
2017-08-27T02:21:45.767Z,55.37
2017-08-27T02:24:12.122Z,72.97
2017-08-27T02:26:38.432Z,57.80
2017-08-27T02:29:04.780Z,76.87
2017-08-27T02:31:31.303Z,68.70
2017-08-27T02:33:57.601Z,58.33
2017-08-27T02:36:23.920Z,71.63
2017-08-27T02:38:50.197Z,69.70
2017-08-27T02:41:16.483Z,69.20
2017-08-27T02:43:42.793Z,76.73
2017-08-27T02:46:09.081Z,84.03
2017-08-27T02:48:35.400Z,73.90
2017-08-27T02:51:01.777Z,81.43
2017-08-27T02:53:28.096Z,78.40
2017-08-27T02:55:54.400Z,74.87
2017-08-27T02:58:20.691Z,79.33
2017-08-27T03:00:47.007Z,68.80
2017-08-27T03:03:13.273Z,69.23
2017-08-27T03:05:39.591Z,64.33
2017-08-27T03:08:05.890Z,74.80
2017-08-27T03:10:32.180Z,73.53
2017-08-27T03:12:58.590Z,59.83
2017-08-27T03:15:24.935Z,61.90
2017-08-27T03:17:51.428Z,59.77
2017-08-27T03:20:17.715Z,68.67
2017-08-27T03:22:44.015Z,61.07
2017-08-27T03:25:10.336Z,63.30
2017-08-27T03:27:36.657Z,61.37
2017-08-27T03:30:03.046Z,64.80
2017-08-27T03:32:29.501Z,63.90
2017-08-27T03:34:55.784Z,58.83
2017-08-27T03:37:22.080Z,55.40
2017-08-27T03:39:48.480Z,74.87
2017-08-27T03:42:14.759Z,58.67
2017-08-27T03:44:41.096Z,63.53
2017-08-27T03:47:07.371Z,62.83
2017-08-27T03:49:34.392Z,58.53
2017-08-27T03:52:00.753Z,62.73
2017-08-27T03:54:27.819Z,54.80
2017-08-27T03:56:54.172Z,64.50
2017-08-27T03:59:20.472Z,64.23
2017-08-27T04:01:46.823Z,63.00
2017-08-27T04:04:13.224Z,54.57
2017-08-27T04:06:40.256Z,68.43
2017-08-27T04:09:06.561Z,63.23
2017-08-27T04:11:32.993Z,62.57
2017-08-27T04:13:59.337Z,64.67
2017-08-27T04:16:25.744Z,56.87
2017-08-27T04:18:52.068Z,60.00
2017-08-27T04:21:18.340Z,61.23
2017-08-27T04:23:44.647Z,59.80
2017-08-27T04:26:11.003Z,67.33
2017-08-27T04:28:37.279Z,77.30
2017-08-27T04:31:03.560Z,67.07
2017-08-27T04:33:29.872Z,63.60
2017-08-27T04:35:56.228Z,61.10
2017-08-27T04:38:23.314Z,65.60
2017-08-27T04:40:49.578Z,59.73
2017-08-27T04:43:15.903Z,72.10
2017-08-27T04:45:42.176Z,60.03
2017-08-27T04:48:08.492Z,60.50
2017-08-27T04:50:34.785Z,53.93
2017-08-27T04:53:01.142Z,49.10
2017-08-27T04:55:27.454Z,53.13
2017-08-27T04:57:54.011Z,52.73
2017-08-27T05:00:20.308Z,37.53
2017-08-27T05:02:46.612Z,32.07
2017-08-27T05:05:12.988Z,27.07
2017-08-27T05:07:39.339Z,33.60
2017-08-27T05:10:05.642Z,30.87
2017-08-27T05:12:31.920Z,27.40
2017-08-27T05:14:58.200Z,32.90
2017-08-27T05:17:24.716Z,21.80
2017-08-27T05:19:51.136Z,28.27
2017-08-27T05:22:17.416Z,22.13
2017-08-27T05:24:43.724Z,30.37
2017-08-27T05:27:10.077Z,23.10
2017-08-27T05:29:36.411Z,23.33
2017-08-27T05:32:02.692Z,23.70
2017-08-27T05:34:29.055Z,26.23
2017-08-27T05:36:55.380Z,33.60
2017-08-27T05:39:21.668Z,29.77
2017-08-27T05:41:47.950Z,29.20
2017-08-27T05:44:14.260Z,30.63
2017-08-27T05:46:40.584Z,25.73
2017-08-27T05:49:06.912Z,22.47
2017-08-27T05:51:33.194Z,26.83
2017-08-27T05:53:59.501Z,29.57
2017-08-27T05:56:25.804Z,23.67
2017-08-27T05:58:52.164Z,28.27
2017-08-27T06:01:18.503Z,23.60
2017-08-27T06:03:44.822Z,26.40
2017-08-27T06:06:11.124Z,21.73
2017-08-27T06:08:37.444Z,27.60
2017-08-27T06:11:03.754Z,24.40
2017-08-27T06:13:30.022Z,21.20
2017-08-27T06:15:56.340Z,25.90
2017-08-27T06:18:22.824Z,30.10
2017-08-27T06:20:49.152Z,24.53
2017-08-27T06:23:15.448Z,27.27
2017-08-27T06:25:41.811Z,26.10
2017-08-27T06:28:08.072Z,24.13
2017-08-27T06:30:34.388Z,26.83
2017-08-27T06:33:00.779Z,22.87
2017-08-27T06:35:27.113Z,23.83
2017-08-27T06:37:53.481Z,24.20
2017-08-27T06:40:19.764Z,20.60
2017-08-27T06:42:46.060Z,25.93
2017-08-27T06:45:12.399Z,26.50
2017-08-27T06:47:38.696Z,24.10
2017-08-27T06:50:05.030Z,24.37
2017-08-27T06:52:31.348Z,25.30
2017-08-27T06:54:57.688Z,26.63
2017-08-27T06:57:23.983Z,28.43
2017-08-27T06:59:50.325Z,22.47
2017-08-27T07:02:16.628Z,22.30
2017-08-27T07:04:43.039Z,23.30
2017-08-27T07:07:09.420Z,23.03
2017-08-27T07:09:35.746Z,21.20
2017-08-27T07:12:02.064Z,20.80
2017-08-27T07:14:28.416Z,19.57
2017-08-27T07:16:54.836Z,22.33
2017-08-27T07:19:21.205Z,18.27
2017-08-27T07:21:47.564Z,19.50
2017-08-27T07:24:13.908Z,16.87
2017-08-27T07:26:40.205Z,16.40
2017-08-27T07:29:06.514Z,16.87
2017-08-27T07:31:32.832Z,15.90
2017-08-27T07:33:59.146Z,17.60
2017-08-27T07:36:25.494Z,24.53
2017-08-27T07:38:51.788Z,18.50
2017-08-27T07:41:18.126Z,19.93
2017-08-27T07:43:44.496Z,17.47
2017-08-27T07:46:10.944Z,20.17
2017-08-27T07:48:37.259Z,16.93
2017-08-27T07:51:03.551Z,16.20
2017-08-27T07:53:29.861Z,18.97
2017-08-27T07:55:56.161Z,21.70
2017-08-27T07:58:22.505Z,18.20
2017-08-27T08:00:48.804Z,21.53
2017-08-27T08:03:15.142Z,18.60
2017-08-27T08:05:41.468Z,20.23
2017-08-27T08:08:07.775Z,22.37
2017-08-27T08:10:34.072Z,20.80
2017-08-27T08:13:00.375Z,21.40
2017-08-27T08:15:26.676Z,22.30
2017-08-27T08:17:52.992Z,22.83
2017-08-27T08:20:19.361Z,24.60
2017-08-27T08:22:45.688Z,32.23
2017-08-27T08:25:11.994Z,18.80
2017-08-27T08:27:38.330Z,16.90
2017-08-27T08:30:04.720Z,16.70
2017-08-27T08:32:31.077Z,17.13
2017-08-27T08:34:57.407Z,15.00
2017-08-27T08:37:24.545Z,16.00
2017-08-27T08:39:50.875Z,14.37
2017-08-27T08:42:17.201Z,14.90
2017-08-27T08:44:43.529Z,12.77
2017-08-27T08:47:09.828Z,12.90
2017-08-27T08:49:36.171Z,11.80
2017-08-27T08:52:02.550Z,11.90
2017-08-27T08:54:29.040Z,10.80
2017-08-27T08:56:55.571Z,10.68
2017-08-27T08:59:21.899Z,10.10
2017-08-27T09:01:48.308Z,11.10
2017-08-27T09:04:14.679Z,10.30
2017-08-27T09:06:41.035Z,13.75
2017-08-27T09:09:07.379Z,11.53
2017-08-27T09:11:33.705Z,11.53
2017-08-27T09:14:00.039Z,11.90
2017-08-27T09:16:26.382Z,14.00
2017-08-27T09:18:52.767Z,12.27
2017-08-27T09:21:19.119Z,10.60
2017-08-27T09:23:45.496Z,11.27
2017-08-27T09:26:11.820Z,11.37
2017-08-27T09:28:38.108Z,16.67
2017-08-27T09:31:04.456Z,12.00
2017-08-27T09:33:30.828Z,13.20
2017-08-27T09:35:57.169Z,13.47
2017-08-27T09:38:23.504Z,15.23
2017-08-27T09:40:49.805Z,15.23
2017-08-27T09:43:16.114Z,14.37
2017-08-27T09:45:42.414Z,12.30
2017-08-27T09:48:08.729Z,11.77
2017-08-27T09:50:35.032Z,13.13
2017-08-27T09:53:01.381Z,13.63
2017-08-27T09:55:27.674Z,13.50
2017-08-27T09:57:54.176Z,12.83
2017-08-27T10:00:20.545Z,14.37
2017-08-27T10:02:46.852Z,15.20
2017-08-27T10:05:13.180Z,13.43
2017-08-27T10:07:39.477Z,13.00
2017-08-27T10:10:05.782Z,14.77
2017-08-27T10:12:32.083Z,16.10
2017-08-27T10:14:58.391Z,22.57
2017-08-27T10:17:24.741Z,15.47
2017-08-27T10:19:51.056Z,20.33
2017-08-27T10:22:18.221Z,19.00
2017-08-27T10:24:44.546Z,15.57
2017-08-27T10:27:10.903Z,18.90
2017-08-27T10:29:37.282Z,21.20
2017-08-27T10:32:03.635Z,20.17
2017-08-27T10:34:29.906Z,20.53
2017-08-27T10:36:56.228Z,18.67
2017-08-27T10:39:22.525Z,17.03
2017-08-27T10:41:48.869Z,15.37
2017-08-27T10:44:15.333Z,22.47
2017-08-27T10:46:41.643Z,16.17
2017-08-27T10:49:07.951Z,16.33
2017-08-27T10:51:34.281Z,20.60
2017-08-27T10:54:00.616Z,18.00
2017-08-27T10:56:26.958Z,18.17
2017-08-27T10:58:53.265Z,18.10
2017-08-27T11:01:19.546Z,19.90
2017-08-27T11:03:45.875Z,22.03
2017-08-27T11:06:12.177Z,18.77
2017-08-27T11:08:38.499Z,16.80
2017-08-27T11:11:04.826Z,17.33
2017-08-27T11:13:31.141Z,17.87
2017-08-27T11:15:57.492Z,20.53
2017-08-27T11:18:23.896Z,19.17
2017-08-27T11:20:50.183Z,13.47
2017-08-27T11:23:16.504Z,23.60
2017-08-27T11:25:42.820Z,16.67
2017-08-27T11:28:09.204Z,15.67
2017-08-27T11:30:35.534Z,17.43
2017-08-27T11:33:01.848Z,17.47
2017-08-27T11:35:28.214Z,18.03
2017-08-27T11:37:54.520Z,18.30
2017-08-27T11:40:20.901Z,27.40
2017-08-27T11:42:47.224Z,17.57
2017-08-27T11:45:13.507Z,15.20
2017-08-27T11:47:39.824Z,20.70
2017-08-27T11:50:06.187Z,14.13
2017-08-27T11:52:32.482Z,18.80
2017-08-27T11:54:58.802Z,16.80
2017-08-27T11:57:25.163Z,14.80
2017-08-27T11:59:51.509Z,14.03
2017-08-27T12:02:17.838Z,14.20
2017-08-27T12:04:44.896Z,13.73
2017-08-27T12:07:11.397Z,15.60
2017-08-27T12:09:37.703Z,18.10
2017-08-27T12:12:04.040Z,15.30
2017-08-27T12:14:30.366Z,17.77
2017-08-27T12:16:56.741Z,15.70
2017-08-27T12:19:23.018Z,20.37
2017-08-27T12:21:49.328Z,17.67
2017-08-27T12:24:15.648Z,18.07
2017-08-27T12:26:42.004Z,20.50
2017-08-27T12:29:08.332Z,20.93
2017-08-27T12:31:34.628Z,16.93
2017-08-27T12:34:00.956Z,14.43
2017-08-27T12:36:27.424Z,21.30
2017-08-27T12:38:53.764Z,21.03
2017-08-27T12:41:20.195Z,13.77
2017-08-27T12:43:46.514Z,27.60
2017-08-27T12:46:12.820Z,16.47
2017-08-27T12:48:39.167Z,19.93
2017-08-27T12:51:05.525Z,14.83
2017-08-27T12:53:31.839Z,15.33
2017-08-27T12:55:58.192Z,13.97
2017-08-27T13:00:55.148Z,20.37
2017-08-27T13:03:21.501Z,21.60
2017-08-27T13:05:47.804Z,15.33
2017-08-27T13:08:14.128Z,15.33
2017-08-27T13:10:40.432Z,14.53
2017-08-27T13:13:06.854Z,16.60
2017-08-27T13:15:33.180Z,17.73
2017-08-27T13:17:59.448Z,13.10
2017-08-27T13:20:25.805Z,13.87
2017-08-27T13:22:52.114Z,16.80
2017-08-27T13:25:18.423Z,15.40
2017-08-27T13:27:44.724Z,15.50
2017-08-27T13:30:11.429Z,13.03
2017-08-27T13:32:37.742Z,14.10
2017-08-27T13:35:04.110Z,16.00
2017-08-27T13:37:30.440Z,13.50
2017-08-27T13:39:56.789Z,17.90
2017-08-27T13:42:23.097Z,20.20
2017-08-27T13:44:49.653Z,14.70
2017-08-27T13:47:16.016Z,19.07
2017-08-27T13:49:42.337Z,14.53
2017-08-27T13:52:08.657Z,15.10
2017-08-27T13:54:35.004Z,11.73
2017-08-27T13:57:01.366Z,17.63
2017-08-27T13:59:27.664Z,12.10
2017-08-27T14:01:53.998Z,16.83
2017-08-27T14:04:20.316Z,12.20
2017-08-27T14:06:46.641Z,10.27
2017-08-27T14:09:12.987Z,11.13
2017-08-27T14:11:39.308Z,12.03
2017-08-27T14:14:05.625Z,15.30
2017-08-27T14:16:31.944Z,14.37
2017-08-27T14:18:58.229Z,12.70
2017-08-27T14:21:24.520Z,11.67
2017-08-27T14:23:50.848Z,12.20
2017-08-27T14:26:17.136Z,13.00
2017-08-27T14:28:43.509Z,18.07
2017-08-27T14:31:09.824Z,16.23
2017-08-27T14:33:36.186Z,12.77
2017-08-27T14:36:02.500Z,16.63
2017-08-27T14:38:28.994Z,13.80
2017-08-27T14:40:55.544Z,14.67
2017-08-27T14:43:21.943Z,11.83
2017-08-27T14:45:48.437Z,12.30
2017-08-27T14:48:14.732Z,18.70
2017-08-27T14:50:41.048Z,21.33
2017-08-27T14:53:07.353Z,13.67
2017-08-27T14:55:33.686Z,17.43
2017-08-27T14:57:59.993Z,18.03
2017-08-27T15:00:26.288Z,14.53
2017-08-27T15:02:52.609Z,12.20
2017-08-27T15:05:18.933Z,14.00
2017-08-27T15:07:45.435Z,14.77
2017-08-27T15:10:11.743Z,16.10
2017-08-27T15:12:38.020Z,12.37
2017-08-27T15:15:04.372Z,13.47
2017-08-27T15:17:30.688Z,17.00
2017-08-27T15:19:57.011Z,17.77
2017-08-27T15:22:23.484Z,15.30
2017-08-27T15:24:50.016Z,16.53
2017-08-27T15:27:16.340Z,17.13
2017-08-27T15:29:42.648Z,16.40
2017-08-27T15:32:08.998Z,18.57
2017-08-27T15:34:35.335Z,14.00
2017-08-27T15:37:01.665Z,16.30
2017-08-27T15:39:27.982Z,20.00
2017-08-27T15:41:54.344Z,26.63
2017-08-27T15:44:20.662Z,16.37
2017-08-27T15:46:46.996Z,15.67
2017-08-27T15:49:13.338Z,18.63
2017-08-27T15:51:39.625Z,17.43
2017-08-27T15:54:06.003Z,25.07
2017-08-27T15:56:32.336Z,17.83
2017-08-27T15:58:58.636Z,15.47
2017-08-27T16:01:24.985Z,17.23
2017-08-27T16:03:51.297Z,15.60
2017-08-27T16:06:17.591Z,26.50
2017-08-27T16:08:43.934Z,15.90
2017-08-27T16:11:10.217Z,17.60
2017-08-27T16:13:36.649Z,14.80
2017-08-27T16:16:02.973Z,14.80
2017-08-27T16:18:29.328Z,14.67
2017-08-27T16:20:55.695Z,12.83
2017-08-27T16:23:22.021Z,13.90
2017-08-27T16:25:48.377Z,13.20
2017-08-27T16:28:14.685Z,12.77
2017-08-27T16:30:41.000Z,20.57
2017-08-27T16:33:07.337Z,25.53
2017-08-27T16:35:33.663Z,14.47
2017-08-27T16:38:00.256Z,12.53
2017-08-27T16:40:26.584Z,16.80
2017-08-27T16:42:52.956Z,12.13
2017-08-27T16:45:19.386Z,16.20
2017-08-27T16:47:45.724Z,14.00
2017-08-27T16:50:12.125Z,22.47
2017-08-27T16:52:38.452Z,14.33
2017-08-27T16:55:04.812Z,14.40
2017-08-27T16:57:31.173Z,20.67
2017-08-27T16:59:57.508Z,18.10
2017-08-27T17:02:23.833Z,14.80
2017-08-27T17:04:50.177Z,15.43
2017-08-27T17:07:16.524Z,18.20
2017-08-27T17:09:42.852Z,20.07
2017-08-27T17:12:09.261Z,13.50
2017-08-27T17:14:35.621Z,15.27
2017-08-27T17:17:01.961Z,13.70
2017-08-27T17:19:28.277Z,17.93
2017-08-27T17:21:54.594Z,14.87
2017-08-27T17:24:20.968Z,16.13
2017-08-27T17:26:47.285Z,13.93
2017-08-27T17:29:13.615Z,13.97
2017-08-27T17:31:39.979Z,15.27
2017-08-27T17:34:06.268Z,13.07
2017-08-27T17:36:32.600Z,17.00
2017-08-27T17:38:58.908Z,14.40
2017-08-27T17:41:25.363Z,13.97
2017-08-27T17:43:51.676Z,13.90
2017-08-27T17:46:18.000Z,12.90
2017-08-27T17:48:44.352Z,16.03
2017-08-27T17:51:10.660Z,18.60
2017-08-27T17:53:36.964Z,14.27
2017-08-27T17:56:03.253Z,24.93
2017-08-27T17:58:29.555Z,14.47
2017-08-27T18:00:55.843Z,17.93
2017-08-27T18:03:22.153Z,16.10
2017-08-27T18:05:48.491Z,17.23
2017-08-27T18:08:14.796Z,15.83
2017-08-27T18:10:41.136Z,14.70
2017-08-27T18:13:07.460Z,14.10
2017-08-27T18:15:33.768Z,17.53
2017-08-27T18:18:00.087Z,17.30
2017-08-27T18:20:26.403Z,14.77
2017-08-27T18:22:52.733Z,19.63
2017-08-27T18:25:19.075Z,21.57
2017-08-27T18:27:45.423Z,23.60
2017-08-27T18:30:11.768Z,16.50
2017-08-27T18:32:38.100Z,21.37
2017-08-27T18:35:04.397Z,17.50
2017-08-27T18:37:30.719Z,22.40
2017-08-27T18:39:57.144Z,15.80
2017-08-27T18:42:23.459Z,17.87
2017-08-27T18:44:49.757Z,16.73
2017-08-27T18:47:16.076Z,19.07
2017-08-27T18:49:42.428Z,20.70
2017-08-27T18:52:08.737Z,22.87
2017-08-27T18:54:35.220Z,20.17
2017-08-27T18:57:01.541Z,17.50
2017-08-27T18:59:27.856Z,25.13
2017-08-27T19:01:54.164Z,17.63
2017-08-27T19:04:20.525Z,16.10
2017-08-27T19:06:46.859Z,21.33
2017-08-27T19:09:13.393Z,19.90
2017-08-27T19:11:39.720Z,18.20
2017-08-27T19:14:06.065Z,19.90
2017-08-27T19:16:32.340Z,17.93
2017-08-27T19:18:58.697Z,17.67
2017-08-27T19:21:25.036Z,13.37
2017-08-27T19:23:51.528Z,21.07
2017-08-27T19:26:17.853Z,16.03
2017-08-27T19:28:44.212Z,17.07
2017-08-27T19:31:10.513Z,14.63
2017-08-27T19:33:36.860Z,17.73
2017-08-27T19:36:03.239Z,19.83
2017-08-27T19:38:29.570Z,13.50
2017-08-27T19:40:55.885Z,20.53
2017-08-27T19:43:22.233Z,16.93
2017-08-27T19:45:48.593Z,24.10
2017-08-27T19:48:14.954Z,20.27
2017-08-27T19:50:41.319Z,17.07
2017-08-27T19:53:07.661Z,20.37
2017-08-27T19:55:34.729Z,16.20
2017-08-27T19:58:01.141Z,21.37
2017-08-27T20:00:27.436Z,15.73
2017-08-27T20:02:53.772Z,18.50
2017-08-27T20:05:20.044Z,20.10
2017-08-27T20:07:46.459Z,15.33
2017-08-27T20:10:12.900Z,25.83
2017-08-27T20:12:39.217Z,14.10
2017-08-27T20:15:05.636Z,15.87
2017-08-27T20:17:31.945Z,19.80
2017-08-27T20:19:58.252Z,14.37
2017-08-27T20:22:24.580Z,17.10
2017-08-27T20:24:50.920Z,15.43
2017-08-27T20:27:17.305Z,16.83
2017-08-27T20:29:44.008Z,17.57
2017-08-27T20:32:10.308Z,16.93
2017-08-27T20:34:36.850Z,19.87
2017-08-27T20:37:03.174Z,15.93
2017-08-27T20:39:29.519Z,19.87
2017-08-27T20:41:55.886Z,17.87
2017-08-27T20:44:22.208Z,17.77
2017-08-27T20:46:48.512Z,16.17
2017-08-27T20:49:14.886Z,18.20
2017-08-27T20:51:41.267Z,16.67
2017-08-27T20:54:07.581Z,16.53
2017-08-27T20:56:33.893Z,15.03
2017-08-27T20:59:00.175Z,18.03
2017-08-27T21:01:26.520Z,13.53
2017-08-27T21:03:52.845Z,15.07
2017-08-27T21:06:19.152Z,13.57
2017-08-27T21:08:45.484Z,14.43
2017-08-27T21:11:11.791Z,19.13
2017-08-27T21:13:38.106Z,17.70
2017-08-27T21:16:04.432Z,18.67
2017-08-27T21:18:30.726Z,16.70
2017-08-27T21:20:57.233Z,13.83
2017-08-27T21:23:23.558Z,13.53
2017-08-27T21:25:49.900Z,18.20
2017-08-27T21:28:16.242Z,14.20
2017-08-27T21:30:42.613Z,12.67
2017-08-27T21:33:08.949Z,17.77
2017-08-27T21:35:35.257Z,15.80
2017-08-27T21:38:01.592Z,14.80
2017-08-27T21:40:28.628Z,13.90
2017-08-27T21:42:55.044Z,13.43
2017-08-27T21:45:21.400Z,16.67
2017-08-27T21:47:47.746Z,17.37
2017-08-27T21:50:14.036Z,12.10
2017-08-27T21:52:40.333Z,15.90
2017-08-27T21:55:06.666Z,10.67
2017-08-27T21:57:32.995Z,11.23
2017-08-27T21:59:59.471Z,10.87
2017-08-27T22:02:25.814Z,11.60
2017-08-27T22:04:55.060Z,19.10
2017-08-27T22:07:21.400Z,11.70
2017-08-27T22:09:47.777Z,11.20
2017-08-27T22:12:14.133Z,9.80
2017-08-27T22:14:40.456Z,9.77
2017-08-27T22:17:06.788Z,9.53
2017-08-27T22:19:33.151Z,11.00
2017-08-27T22:21:59.532Z,8.97
2017-08-27T22:24:25.800Z,10.93
2017-08-27T22:26:52.095Z,9.60
2017-08-27T22:29:18.402Z,11.03
2017-08-27T22:31:44.707Z,23.90
2017-08-27T22:34:11.019Z,11.80
2017-08-27T22:36:37.344Z,8.70
2017-08-27T22:39:03.628Z,9.53
2017-08-27T22:41:29.912Z,11.10
2017-08-27T22:43:56.240Z,10.43
2017-08-27T22:46:22.520Z,10.90
2017-08-27T22:48:49.052Z,7.70
2017-08-27T22:51:15.404Z,8.70
2017-08-27T22:53:41.768Z,10.13
2017-08-27T22:56:08.076Z,11.93
2017-08-27T22:58:34.376Z,10.53
2017-08-27T23:01:00.714Z,9.90
2017-08-27T23:03:27.059Z,13.50
2017-08-27T23:05:53.350Z,7.50
2017-08-27T23:08:19.668Z,8.67
2017-08-27T23:10:45.932Z,8.50
2017-08-27T23:13:12.207Z,8.27
2017-08-27T23:15:38.545Z,7.27
2017-08-27T23:18:04.846Z,10.27
2017-08-27T23:20:31.140Z,5.90
2017-08-27T23:22:57.455Z,6.87
2017-08-27T23:25:23.765Z,9.17
2017-08-27T23:27:50.047Z,9.27
2017-08-27T23:30:16.348Z,7.63
2017-08-27T23:32:42.661Z,8.77
2017-08-27T23:35:08.999Z,18.00
2017-08-27T23:37:35.349Z,8.50
2017-08-27T23:40:01.640Z,12.70
2017-08-27T23:42:27.939Z,7.97
2017-08-27T23:44:54.220Z,6.53
2017-08-27T23:47:20.560Z,9.07
2017-08-27T23:49:46.831Z,5.17
2017-08-27T23:52:13.284Z,6.30
2017-08-27T23:54:39.629Z,7.00
2017-08-27T23:57:05.922Z,8.47
2017-08-27T23:59:32.239Z,6.70
